The Medway Towns, United Kingdom
Current Conditions -  °F | °C
As of 7:50 PM on Friday 19 Dec 2014 (Local Time) from EGMC Reporting Station
Clear Clear  
Wind Chill:   Ceiling: Unl
Heat Index:   Visibility: 6mi
Dew Point:   Wind: 13mph
Humidity: 66%   Direction: 250°WSW
Pressure: 30.15"   Gusts: NA
Location:  51.36°N, 0.54°E
Report Text: EGMC 191950Z 25011KT CAVOK 07/01 Q1021
Loading
Personal Weather Stations






























Interactive Weather Map New forecast layout! Learn more

10-Day Weather Forecast

Advertisements
Track Severe Weather on mobile